Time;durP1;ratioP1;P1;durP2;ratioP2;P2;SDS_P1;SDS_P2;PMS_P1;PMS_P2;Temp;Humidity;BMP_temperature;BMP_pressure;BME280_temperature;BME280_humidity;BME280_pressure;Samples;Min_cycle;Max_cycle;Signal;HPM_P1;HPM_P2
2022/05/03 00:00:31;;;;;;;10.20;6.13;;;;;;;11.49;74.00;101242.53;5042514;28;20219;-51
2022/05/03 00:03:07;;;;;;;7.93;7.13;;;;;;;11.60;73.90;101235.53;5030497;28;20224;-51
2022/05/03 00:05:39;;;;;;;7.40;6.73;;;;;;;11.50;74.39;101239.00;5023767;28;20228;-52
2022/05/03 00:08:10;;;;;;;13.37;7.00;;;;;;;11.49;74.68;101242.53;5019609;28;20268;-51
2022/05/03 00:10:43;;;;;;;6.93;5.97;;;;;;;11.44;73.90;101245.09;5016622;28;20268;-51
2022/05/03 00:13:10;;;;;;;6.93;6.27;;;;;;;11.43;73.18;101241.59;5031054;28;20233;-50
2022/05/03 00:15:40;;;;;;;8.17;6.47;;;;;;;11.52;72.06;101243.41;5035356;28;20248;-51
2022/05/03 00:18:08;;;;;;;9.10;6.57;;;;;;;11.47;71.66;101238.09;5023017;28;20244;-51
2022/05/03 00:20:34;;;;;;;6.93;6.23;;;;;;;11.38;71.93;101229.34;5029932;28;20236;-51
2022/05/03 00:23:01;;;;;;;7.53;6.90;;;;;;;11.38;72.63;101226.72;5045936;28;20670;-51
2022/05/03 00:25:30;;;;;;;8.00;6.80;;;;;;;11.28;72.45;101220.53;5039890;28;20710;-51
2022/05/03 00:27:56;;;;;;;6.77;6.07;;;;;;;11.25;72.71;101228.41;5040556;28;20244;-51
2022/05/03 00:30:23;;;;;;;9.38;7.80;;;;;;;11.28;72.87;101223.16;5041943;28;20244;-51
2022/05/03 00:32:50;;;;;;;7.22;6.53;;;;;;;11.32;72.44;101221.41;5039591;28;20232;-50
2022/05/03 00:35:16;;;;;;;6.75;6.15;;;;;;;11.30;72.33;101210.00;5018285;28;20286;-51
2022/05/03 00:37:43;;;;;;;6.75;5.82;;;;;;;11.28;72.54;101217.03;5024506;28;20251;-51
2022/05/03 00:40:11;;;;;;;8.00;6.50;;;;;;;11.27;72.75;101210.91;5042575;28;20300;-50
2022/05/03 00:42:46;;;;;;;8.15;7.35;;;;;;;11.29;73.24;101214.38;5044804;28;20607;-51
2022/05/03 00:45:15;;;;;;;9.43;5.97;;;;;;;11.24;73.65;101210.88;5027489;28;20231;-50
2022/05/03 00:47:53;;;;;;;7.45;6.82;;;;;;;11.27;73.55;101208.28;5030417;28;20326;-51
2022/05/03 00:50:33;;;;;;;7.55;6.40;;;;;;;11.24;72.59;101205.63;5034416;28;20678;-51
2022/05/03 00:53:03;;;;;;;7.20;6.50;;;;;;;11.20;73.33;101202.09;5045451;28;20235;-51
2022/05/03 00:55:45;;;;;;;7.80;7.00;;;;;;;11.23;73.33;101203.84;5035327;28;20627;-50
2022/05/03 00:58:23;;;;;;;7.75;6.95;;;;;;;11.25;72.86;101201.25;5049599;28;20238;-50
2022/05/03 01:00:55;;;;;;;9.00;7.27;;;;;;;11.28;72.29;101196.88;5057737;28;20671;-50
2022/05/03 01:03:27;;;;;;;8.10;6.45;;;;;;;11.24;71.96;101200.38;5044852;28;20223;-51
2022/05/03 01:06:05;;;;;;;7.03;6.32;;;;;;;11.20;72.69;101190.72;5038653;28;20241;-50
2022/05/03 01:08:37;;;;;;;7.63;6.90;;;;;;;11.18;72.77;101201.22;5046490;28;20231;-51
2022/05/03 01:11:15;;;;;;;6.82;6.22;;;;;;;11.14;72.72;101198.56;5039613;28;20311;-50
2022/05/03 01:13:48;;;;;;;8.13;6.73;;;;;;;11.14;73.01;101198.56;5049298;28;20239;-53
2022/05/03 01:16:21;;;;;;;7.13;6.43;;;;;;;11.07;73.63;101191.53;5047345;28;20232;-51
2022/05/03 01:18:54;;;;;;;7.57;6.77;;;;;;;10.99;74.04;101200.25;5042940;28;20240;-51
2022/05/03 01:21:45;;;;;;;8.53;7.07;;;;;;;11.07;74.25;101207.31;5026486;28;20611;-51
2022/05/03 01:24:29;;;;;;;8.23;7.33;;;;;;;11.04;74.21;101212.53;5030291;28;20232;-51
2022/05/03 01:27:20;;;;;;;10.20;6.47;;;;;;;10.95;74.07;101209.00;5023011;28;20240;-51
2022/05/03 01:29:50;;;;;;;6.47;5.87;;;;;;;10.90;73.89;101205.47;5036266;28;20276;-51
2022/05/03 01:32:19;;;;;;;6.37;5.73;;;;;;;10.85;73.70;101207.19;5036127;28;20224;-51
2022/05/03 01:34:47;;;;;;;6.70;6.13;;;;;;;10.82;73.36;101209.81;5037223;28;20236;-51
2022/05/03 01:37:25;;;;;;;7.50;6.57;;;;;;;10.80;73.86;101211.53;5023512;28;20717;-50
2022/05/03 01:40:02;;;;;;;7.23;6.60;;;;;;;10.81;74.10;101205.44;5039564;28;20236;-50
2022/05/03 01:42:37;;;;;;;7.53;6.50;;;;;;;10.80;73.61;101206.28;5022909;28;20698;-50
2022/05/03 01:45:07;;;;;;;6.33;5.43;;;;;;;10.78;73.21;101197.53;5037536;28;20285;-50
2022/05/03 01:47:41;;;;;;;7.93;6.40;;;;;;;10.77;73.13;101198.38;5043158;28;20247;-50
2022/05/03 01:50:20;;;;;;;8.43;7.43;;;;;;;10.78;72.80;101200.16;5025398;28;20285;-50
2022/05/03 01:53:09;;;;;;;8.63;6.57;;;;;;;10.78;72.73;101208.03;5029997;28;20589;-51
2022/05/03 01:56:02;;;;;;;8.23;6.73;;;;;;;10.71;72.73;101216.75;5042291;28;20419;-51
2022/05/03 01:58:36;;;;;;;7.67;6.67;;;;;;;10.74;72.87;101203.63;5021404;28;20327;-51
2022/05/03 02:01:05;;;;;;;9.27;6.47;;;;;;;10.62;73.83;101198.28;5028098;28;20232;-50
2022/05/03 02:03:38;;;;;;;8.47;6.87;;;;;;;10.63;73.39;101200.91;5035585;28;20287;-50
2022/05/03 02:06:08;;;;;;;10.43;5.67;;;;;;;10.60;73.74;101200.03;5046843;28;20307;-51
2022/05/03 02:08:44;;;;;;;7.30;6.53;;;;;;;10.48;72.80;101201.69;5042537;28;20281;-51
2022/05/03 02:11:23;;;;;;;7.37;6.10;;;;;;;10.41;72.66;101194.66;5040759;28;20251;-50
2022/05/03 02:16:54;;;;;;;7.20;6.07;;;;;;;10.44;72.79;101191.19;5041763;28;20793;-50
2022/05/03 02:19:34;;;;;;;7.23;6.53;;;;;;;10.43;72.52;101192.06;5048852;28;20293;-51
2022/05/03 02:22:07;;;;;;;7.57;6.87;;;;;;;10.38;73.14;101194.63;5046837;28;20259;-50
2022/05/03 02:24:40;;;;;;;7.73;6.47;;;;;;;10.41;73.23;101188.53;5048249;28;20239;-50
2022/05/03 02:27:09;;;;;;;7.40;6.47;;;;;;;10.41;73.07;101186.78;5039430;28;20226;-51
2022/05/03 02:29:43;;;;;;;9.40;6.60;;;;;;;10.41;72.94;101189.41;5024333;28;20255;-50
2022/05/03 02:32:12;;;;;;;8.50;5.97;;;;;;;10.40;73.12;101190.28;5026251;28;20232;-51
2022/05/03 02:34:43;;;;;;;7.60;6.57;;;;;;;10.43;73.46;101195.56;5026083;28;20240;-51
2022/05/03 02:37:16;;;;;;;12.73;7.43;;;;;;;10.40;73.78;101202.53;5032147;28;20240;-51
2022/05/03 02:39:56;;;;;;;8.07;7.33;;;;;;;10.43;74.40;101197.31;5045006;28;20289;-51
2022/05/03 02:42:22;;;;;;;8.23;7.43;;;;;;;10.40;74.38;101192.91;5050725;28;20235;-51
2022/05/03 02:44:49;;;;;;;7.83;7.13;;;;;;;10.41;74.01;101193.78;5041123;28;20263;-50
2022/05/03 02:47:27;;;;;;;9.57;7.27;;;;;;;10.40;74.36;101198.16;5036944;28;20243;-51
2022/05/03 02:50:04;;;;;;;7.67;6.70;;;;;;;10.29;74.93;101194.56;5041683;28;21487;-50
2022/05/03 02:52:40;;;;;;;8.20;7.40;;;;;;;10.30;74.69;101193.69;5040995;28;20232;-51
2022/05/03 02:55:18;;;;;;;8.13;7.40;;;;;;;10.32;74.78;101193.69;5055348;28;20278;-51
2022/05/03 02:57:52;;;;;;;7.43;6.60;;;;;;;10.25;74.79;101195.41;5039262;28;20309;-55
2022/05/03 03:03:31;;;;;;;7.37;6.43;;;;;;;10.19;75.17;101197.97;5043527;28;20731;-54
2022/05/03 03:05:59;;;;;;;9.17;7.53;;;;;;;10.14;75.95;101204.91;5042473;28;20229;-54
2022/05/03 03:08:28;;;;;;;9.77;7.00;;;;;;;10.14;76.35;101207.53;5048126;28;20231;-51
2022/05/03 03:11:03;;;;;;;11.13;6.47;;;;;;;10.14;76.10;101207.53;5053422;28;20238;-51
2022/05/03 03:13:40;;;;;;;8.50;6.50;;;;;;;10.08;76.84;101205.75;5039219;28;20567;-51
2022/05/03 03:16:08;;;;;;;7.93;6.90;;;;;;;10.03;77.00;101210.06;5042885;28;20883;-51
2022/05/03 03:18:38;;;;;;;7.20;6.50;;;;;;;10.02;77.13;101211.81;5035482;28;20244;-51
2022/05/03 03:21:06;;;;;;;10.57;6.60;;;;;;;9.99;77.38;101210.91;5024427;28;20232;-51
2022/05/03 03:23:34;;;;;;;7.63;6.90;;;;;;;9.94;77.63;101212.63;5027977;28;20236;-50
2022/05/03 03:26:01;;;;;;;7.87;6.30;;;;;;;9.87;77.62;101209.06;5043847;28;20549;-51
2022/05/03 03:28:30;;;;;;;7.63;6.87;;;;;;;9.85;78.17;101205.53;5035329;28;20241;-51
2022/05/03 03:30:56;;;;;;;6.47;5.83;;;;;;;9.79;78.78;101211.59;5030336;28;20636;-50
2022/05/03 03:33:23;;;;;;;7.50;6.30;;;;;;;9.79;78.93;101208.09;5037847;28;20248;-51
2022/05/03 03:35:52;;;;;;;6.93;6.03;;;;;;;9.76;78.48;101208.94;5045613;28;20322;-51
2022/05/03 03:38:22;;;;;;;7.10;6.13;;;;;;;9.75;78.44;101211.53;5040334;28;20262;-51
2022/05/03 03:40:49;;;;;;;7.73;6.90;;;;;;;9.73;78.96;101208.03;5042280;28;20301;-51
2022/05/03 03:43:16;;;;;;;7.17;6.47;;;;;;;9.76;79.06;101210.69;5032639;28;20323;-51
2022/05/03 03:45:42;;;;;;;7.47;6.77;;;;;;;9.68;79.49;101210.59;5036642;28;20225;-51
2022/05/03 03:48:10;;;;;;;8.63;7.27;;;;;;;9.67;79.63;101206.22;5042201;28;20243;-51
2022/05/03 03:50:37;;;;;;;6.77;6.07;;;;;;;9.69;79.98;101211.50;5051634;28;20239;-51
2022/05/03 03:53:06;;;;;;;7.37;6.60;;;;;;;9.65;79.90;101210.59;5034250;28;20224;-50
2022/05/03 03:55:32;;;;;;;7.53;6.37;;;;;;;9.68;79.57;101209.72;5040863;28;20648;-50
2022/05/03 03:57:59;;;;;;;7.77;6.20;;;;;;;9.70;79.54;101213.25;5048145;28;20236;-51
2022/05/03 04:00:25;;;;;;;7.30;6.53;;;;;;;9.69;79.68;101209.75;5037094;28;20658;-51
2022/05/03 04:02:52;;;;;;;9.93;6.67;;;;;;;9.69;79.79;101214.13;5033040;28;20325;-51
2022/05/03 04:05:19;;;;;;;10.17;6.47;;;;;;;9.64;79.93;101205.31;5026388;28;20312;-51
2022/05/03 04:07:46;;;;;;;7.70;6.80;;;;;;;9.70;79.82;101202.75;5023089;28;20758;-50
2022/05/03 04:10:14;;;;;;;7.70;6.77;;;;;;;9.69;79.77;101211.50;5034048;28;20233;-51
2022/05/03 04:12:41;;;;;;;7.20;6.30;;;;;;;9.70;79.25;101213.25;5044704;28;20224;-52
2022/05/03 04:15:08;;;;;;;7.60;6.90;;;;;;;9.71;79.85;101215.88;5044062;28;20699;-51
2022/05/03 04:17:34;;;;;;;7.20;6.50;;;;;;;9.75;79.36;101214.16;5046171;28;20243;-50
2022/05/03 04:20:01;;;;;;;9.40;6.63;;;;;;;9.76;78.90;101216.81;5038946;28;20232;-51
2022/05/03 04:22:29;;;;;;;8.57;6.90;;;;;;;9.77;78.69;101209.81;5020314;28;20232;-50
2022/05/03 04:24:55;;;;;;;7.33;6.63;;;;;;;9.77;78.80;101212.44;5031361;28;20256;-51
2022/05/03 04:27:23;;;;;;;7.73;7.00;;;;;;;9.79;78.88;101219.47;5031436;28;20232;-50
2022/05/03 04:29:50;;;;;;;6.97;6.27;;;;;;;9.80;78.28;101225.59;5040118;28;20346;-50
2022/05/03 04:32:17;;;;;;;10.00;7.33;;;;;;;9.80;78.36;101226.47;5036736;28;20228;-50
2022/05/03 04:34:44;;;;;;;8.17;6.80;;;;;;;9.84;78.25;101226.50;5020219;28;20243;-51
2022/05/03 04:37:10;;;;;;;8.40;7.50;;;;;;;9.86;77.55;101228.25;5033757;28;20590;-51
2022/05/03 04:39:37;;;;;;;11.30;6.97;;;;;;;9.88;77.62;101233.53;5041407;28;20294;-52
2022/05/03 04:42:04;;;;;;;10.63;7.00;;;;;;;9.91;77.64;101238.81;5037925;28;20244;-51
2022/05/03 04:44:32;;;;;;;11.63;7.07;;;;;;;9.93;77.68;101240.59;5025283;28;20227;-51
2022/05/03 04:46:58;;;;;;;7.83;6.67;;;;;;;9.98;77.61;101238.88;5043712;28;20237;-51
2022/05/03 04:49:25;;;;;;;9.57;6.97;;;;;;;10.09;76.98;101240.72;5047897;28;20232;-51
2022/05/03 04:51:51;;;;;;;8.27;7.07;;;;;;;10.14;76.19;101242.50;5046952;28;20293;-51
2022/05/03 04:54:17;;;;;;;7.57;6.77;;;;;;;10.17;76.31;101252.16;5045251;28;20787;-51
2022/05/03 04:56:48;;;;;;;7.33;6.63;;;;;;;10.24;76.87;101244.34;5035392;28;20614;-51
2022/05/03 04:59:14;;;;;;;9.10;7.60;;;;;;;10.34;76.47;101250.59;5053127;28;20231;-51
2022/05/03 05:01:42;;;;;;;8.83;7.10;;;;;;;10.37;75.92;101250.63;5036016;28;20232;-51
2022/05/03 05:04:08;;;;;;;6.90;6.17;;;;;;;10.42;75.34;101251.53;5048533;28;20318;-51
2022/05/03 05:06:35;;;;;;;8.27;6.40;;;;;;;10.48;74.15;101254.22;5049318;28;20326;-51
2022/05/03 05:09:01;;;;;;;9.23;6.93;;;;;;;10.53;73.44;101246.38;5048781;28;20716;-51
2022/05/03 05:11:28;;;;;;;7.93;7.13;;;;;;;10.57;73.92;101248.16;5038670;28;20283;-51
2022/05/03 05:13:54;;;;;;;7.57;6.30;;;;;;;10.57;74.23;101252.53;5034965;28;20286;-51
2022/05/03 05:16:20;;;;;;;8.00;5.97;;;;;;;10.60;74.70;101257.78;5022432;28;20707;-51
2022/05/03 05:18:50;;;;;;;7.60;6.87;;;;;;;10.59;75.27;101256.91;5023632;28;20770;-51
2022/05/03 05:21:16;;;;;;;6.85;6.07;;;;;;;10.55;75.71;101259.50;5020147;28;20225;-51
2022/05/03 05:23:43;;;;;;;8.20;6.10;;;;;;;10.56;76.07;101256.00;5026023;28;20244;-51
2022/05/03 05:26:09;;;;;;;9.70;7.80;;;;;;;10.59;75.63;101263.91;5017859;28;20318;-52
2022/05/03 05:28:36;;;;;;;8.80;6.43;;;;;;;10.59;75.83;101256.91;5023440;28;20260;-51
2022/05/03 05:31:02;;;;;;;8.07;6.10;;;;;;;10.58;75.85;101254.28;5023474;28;20225;-51
2022/05/03 05:33:29;;;;;;;7.93;6.30;;;;;;;10.57;75.88;101249.91;5054647;28;20321;-51
2022/05/03 05:35:57;;;;;;;8.50;6.67;;;;;;;10.50;76.10;101251.63;5044097;28;20235;-51
2022/05/03 05:38:23;;;;;;;8.63;7.73;;;;;;;10.51;76.34;101254.22;5035260;28;20232;-51
2022/05/03 05:40:52;;;;;;;8.40;6.60;;;;;;;10.54;76.15;101253.38;5032847;28;20943;-51
2022/05/03 05:43:18;;;;;;;9.13;7.63;;;;;;;10.60;75.91;101252.53;5031696;28;20235;-51
2022/05/03 05:45:45;;;;;;;7.97;7.03;;;;;;;10.64;75.37;101259.59;5045116;28;20259;-52
2022/05/03 05:48:12;;;;;;;8.40;7.57;;;;;;;10.71;75.17;101261.41;5048907;28;20254;-50
2022/05/03 05:50:39;;;;;;;8.67;6.80;;;;;;;10.82;74.52;101266.72;5035505;28;20342;-51
2022/05/03 05:55:51;;;;;;;9.13;7.30;;;;;;;11.08;73.85;101274.75;5045513;28;20235;-52
2022/05/03 05:58:17;;;;;;;10.57;7.23;;;;;;;11.10;72.92;101275.66;5054919;28;20251;-51
2022/05/03 06:00:43;;;;;;;6.83;6.17;;;;;;;11.14;73.02;101277.41;5043235;28;20644;-51
2022/05/03 06:03:10;;;;;;;7.13;6.30;;;;;;;11.22;72.68;101275.69;5035370;28;20236;-51
2022/05/03 06:05:37;;;;;;;7.20;6.20;;;;;;;11.27;71.66;101280.97;5025939;28;20260;-52
2022/05/03 06:08:04;;;;;;;8.82;6.15;;;;;;;11.30;71.43;101279.25;5038428;28;20597;-51
2022/05/03 06:10:32;;;;;;;10.50;6.18;;;;;;;11.39;69.93;101284.53;5037910;28;20256;-51
2022/05/03 06:12:59;;;;;;;6.47;5.55;;;;;;;11.43;69.33;101281.03;5031959;28;20289;-51
2022/05/03 06:15:25;;;;;;;10.90;5.93;;;;;;;11.36;66.43;101279.25;5041788;28;20239;-52
2022/05/03 06:17:52;;;;;;;6.57;4.70;;;;;;;11.45;65.91;101281.94;5031100;28;20710;-51
2022/05/03 06:20:19;;;;;;;10.73;5.30;;;;;;;11.54;67.04;101282.84;5042965;28;20317;-51
2022/05/03 06:22:45;;;;;;;7.82;4.85;;;;;;;11.56;66.37;101281.13;5042964;28;20599;-52
2022/05/03 06:25:12;;;;;;;5.63;4.70;;;;;;;11.53;65.23;101281.97;5039303;28;20384;-51
2022/05/03 06:27:40;;;;;;;6.80;4.30;;;;;;;11.56;65.31;101294.25;5031386;28;20244;-51
2022/05/03 06:30:08;;;;;;;4.53;3.95;;;;;;;11.62;65.69;101286.41;5022288;28;20232;-53
2022/05/03 06:32:35;;;;;;;3.42;3.10;;;;;;;11.66;64.75;101289.03;5035705;28;20232;-52
2022/05/03 06:35:02;;;;;;;4.85;3.03;;;;;;;11.70;62.84;101292.56;5032992;28;20243;-52
2022/05/03 06:37:28;;;;;;;2.60;2.40;;;;;;;11.77;62.16;101291.69;5051552;28;20263;-52
2022/05/03 06:39:55;;;;;;;5.00;2.97;;;;;;;11.81;60.97;101285.56;5050473;28;20250;-51
2022/05/03 06:42:21;;;;;;;5.25;2.10;;;;;;;11.89;59.45;101291.75;5043350;28;20232;-52
2022/05/03 06:44:49;;;;;;;6.78;2.38;;;;;;;11.97;57.88;101288.25;5049245;28;20227;-52
2022/05/03 06:47:15;;;;;;;2.10;1.90;;;;;;;12.05;56.97;101289.19;5055829;28;20235;-52
2022/05/03 06:49:43;;;;;;;2.42;1.90;;;;;;;12.13;56.82;101287.44;5041613;28;20240;-52
2022/05/03 06:52:09;;;;;;;1.88;1.75;;;;;;;12.27;55.70;101295.34;5051944;28;20236;-50
2022/05/03 06:54:36;;;;;;;3.38;1.98;;;;;;;12.36;55.51;101292.72;5044763;28;20741;-52
2022/05/03 06:57:02;;;;;;;3.38;2.05;;;;;;;12.52;53.44;101298.88;5037482;28;20235;-51
2022/05/03 06:59:29;;;;;;;2.92;1.88;;;;;;;12.57;52.99;101298.00;5050573;28;20289;-51
2022/05/03 07:01:56;;;;;;;2.47;1.67;;;;;;;12.81;51.92;101301.47;5027843;28;20286;-51
2022/05/03 07:04:23;;;;;;;2.53;2.33;;;;;;;12.85;52.12;101301.50;5033610;28;20244;-52
2022/05/03 07:06:49;;;;;;;3.75;2.15;;;;;;;12.89;52.17;101313.78;5025666;28;20290;-51
2022/05/03 07:09:15;;;;;;;3.60;1.98;;;;;;;13.00;51.31;101307.63;5028524;28;20252;-52
2022/05/03 07:11:42;;;;;;;3.10;2.22;;;;;;;13.01;51.90;101310.22;5029840;28;20247;-51
2022/05/03 07:14:08;;;;;;;2.58;2.15;;;;;;;13.32;50.97;101311.06;5028995;28;20232;-54
2022/05/03 07:16:35;;;;;;;2.58;1.98;;;;;;;13.45;50.56;101298.72;5026719;28;20619;-51
2022/05/03 07:24:31;;;;;;;1.90;1.73;;;;;;;13.46;49.37;101307.53;5049022;28;20293;-50
2022/05/03 07:26:57;;;;;;;2.72;1.58;;;;;;;13.64;49.62;101318.00;5049512;28;20239;-51
2022/05/03 07:29:23;;;;;;;2.40;2.10;;;;;;;13.70;49.63;101312.69;5055337;28;20232;-51
2022/05/03 07:31:51;;;;;;;4.88;2.13;;;;;;;13.50;49.23;101317.16;5043987;28;20235;-51
2022/05/03 07:34:18;;;;;;;2.72;2.15;;;;;;;13.65;49.86;101314.47;5048816;28;20713;-51
2022/05/03 07:36:45;;;;;;;4.28;2.38;;;;;;;13.77;49.43;101319.69;5047787;28;20278;-50
2022/05/03 07:39:11;;;;;;;5.53;2.67;;;;;;;13.95;49.05;101316.09;5038806;28;20776;-52
2022/05/03 07:41:38;;;;;;;3.53;2.17;;;;;;;13.86;49.11;101313.47;5041815;28;20232;-51
2022/05/03 07:44:04;;;;;;;2.70;2.50;;;;;;;13.95;48.96;101317.84;5028805;28;20263;-50
2022/05/03 07:46:31;;;;;;;2.22;2.03;;;;;;;13.98;49.73;101325.75;5035571;28;20663;-51
2022/05/03 07:48:58;;;;;;;2.60;1.77;;;;;;;14.08;49.66;101330.09;5029291;28;20287;-52
2022/05/03 07:51:26;;;;;;;3.33;2.90;;;;;;;14.16;49.51;101322.13;5039445;28;20230;-53
2022/05/03 07:53:52;;;;;;;2.55;2.35;;;;;;;14.25;52.37;101322.06;5029479;28;20235;-52
2022/05/03 07:56:19;;;;;;;2.38;2.13;;;;;;;14.44;49.26;101322.81;5027229;28;20328;-49
2022/05/03 07:58:45;;;;;;;2.65;2.45;;;;;;;14.35;49.43;101323.75;5032420;28;20235;-51
2022/05/03 08:01:11;;;;;;;3.85;2.50;;;;;;;14.31;49.04;101332.59;5045573;28;20235;-51
2022/05/03 08:03:38;;;;;;;4.82;2.33;;;;;;;14.39;49.04;101335.16;5041675;28;20286;-52
2022/05/03 08:06:04;;;;;;;3.13;2.40;;;;;;;14.48;48.21;101335.97;5042900;28;20235;-51
2022/05/03 08:08:32;;;;;;;2.38;2.17;;;;;;;14.66;47.73;101342.06;5036519;28;20228;-50
2022/05/03 08:10:59;;;;;;;3.63;2.40;;;;;;;14.73;47.31;101341.97;5021382;28;20236;-53
2022/05/03 08:13:25;;;;;;;6.53;2.78;;;;;;;14.88;46.97;101341.00;5040030;28;20227;-52
2022/05/03 08:15:52;;;;;;;6.70;2.60;;;;;;;15.04;46.69;101342.59;5032197;28;20783;-52
2022/05/03 08:18:18;;;;;;;5.43;2.13;;;;;;;15.27;45.61;101334.44;5035230;28;20236;-52
2022/05/03 08:20:44;;;;;;;2.35;2.05;;;;;;;15.35;45.10;101339.63;5041336;28;20209;-52
2022/05/03 08:23:11;;;;;;;2.45;2.13;;;;;;;15.21;44.66;101345.06;5029077;28;20228;-52
2022/05/03 08:25:39;;;;;;;6.10;2.72;;;;;;;15.09;45.60;101345.19;5040674;28;20236;-53
2022/05/03 08:28:06;;;;;;;3.97;2.50;;;;;;;14.99;45.23;101343.53;5047264;28;20247;-52
2022/05/03 08:30:32;;;;;;;6.93;3.55;;;;;;;14.87;45.68;101346.28;5041593;28;20224;-51
2022/05/03 08:32:59;;;;;;;5.72;2.72;;;;;;;14.83;45.54;101348.06;5030184;28;20244;-51
2022/05/03 08:35:25;;;;;;;3.45;2.63;;;;;;;14.93;45.49;101347.09;5033622;28;20443;-52
2022/05/03 08:43:21;;;;;;;2.28;2.08;;;;;;;14.94;44.92;101345.34;5031793;28;20277;-51
2022/05/03 08:45:50;;;;;;;3.45;2.22;;;;;;;15.00;45.10;101353.22;5020876;28;20245;-51
2022/05/03 08:48:17;;;;;;;4.03;2.00;;;;;;;14.97;45.78;101345.31;5026801;28;20224;-53
2022/05/03 08:50:44;;;;;;;7.63;2.42;;;;;;;15.06;44.59;101346.97;5015363;28;20241;-51
2022/05/03 08:53:11;;;;;;;1.70;1.60;;;;;;;14.99;45.01;101344.41;5020941;28;20264;-52
2022/05/03 08:55:40;;;;;;;3.03;2.40;;;;;;;15.10;45.25;101354.88;5026702;28;20775;-52
2022/05/03 08:58:06;;;;;;;2.15;1.67;;;;;;;14.98;45.11;101350.56;5035852;28;20240;-55
2022/05/03 09:00:34;;;;;;;2.00;1.90;;;;;;;15.17;44.90;101351.28;5030125;28;20417;-52
2022/05/03 09:03:03;;;;;;;3.17;2.85;;;;;;;15.18;44.58;101350.38;5048420;28;20232;-52
2022/05/03 09:05:29;;;;;;;1.65;1.55;;;;;;;15.32;44.44;101350.25;5043738;28;20228;-51
2022/05/03 09:07:59;;;;;;;2.78;2.28;;;;;;;15.71;44.21;101351.59;5037828;28;20241;-52
2022/05/03 09:10:27;;;;;;;3.75;2.05;;;;;;;16.08;43.21;101335.22;5038373;28;20729;-52
2022/05/03 09:12:54;;;;;;;2.10;1.90;;;;;;;16.48;41.26;101344.34;5035260;28;20229;-52
2022/05/03 09:15:29;;;;;;;1.60;1.50;;;;;;;16.62;40.56;101335.28;5042683;28;20650;-52
2022/05/03 09:17:57;;;;;;;2.35;2.15;;;;;;;16.92;40.16;101335.72;5043960;28;20756;-53
2022/05/03 09:26:12;;;;;;;6.78;2.10;;;;;;;17.49;39.52;101324.88;5006635;28;20437;-52
2022/05/03 09:28:44;;;;;;;1.90;1.80;;;;;;;17.41;39.77;101329.47;5040015;28;20259;-53
2022/05/03 09:31:11;;;;;;;4.20;2.25;;;;;;;17.49;40.05;101324.88;5043703;28;20247;-52
2022/05/03 09:33:39;;;;;;;3.10;1.85;;;;;;;17.73;39.53;101314.66;5041171;28;20326;-57
2022/05/03 09:36:08;;;;;;;1.67;1.50;;;;;;;17.68;39.10;101313.88;5051185;28;20244;-50
2022/05/03 09:38:44;;;;;;;6.13;1.67;;;;;;;17.86;38.28;101316.16;5026144;28;20634;-53
2022/05/03 09:41:15;;;;;;;4.90;1.75;;;;;;;17.70;38.28;101312.06;5037433;28;20228;-50
2022/05/03 09:44:03;;;;;;;2.83;1.65;;;;;;;17.96;38.64;101308.88;5044369;28;20425;-52
2022/05/03 09:46:29;;;;;;;3.40;2.33;;;;;;;18.20;36.44;101318.06;5045552;28;20235;-52
2022/05/03 09:48:57;;;;;;;2.85;2.05;;;;;;;18.33;36.13;101316.88;5048054;28;20243;-52
2022/05/03 09:51:23;;;;;;;2.80;1.92;;;;;;;18.28;37.36;101321.41;5036822;28;20256;-52
2022/05/03 09:53:57;;;;;;;1.88;1.40;;;;;;;18.41;37.31;101311.38;5043979;28;20239;-52
2022/05/03 09:56:25;;;;;;;3.97;1.60;;;;;;;18.63;36.06;101323.22;5050149;28;20231;-52
2022/05/03 09:58:56;;;;;;;2.72;1.80;;;;;;;18.72;34.93;101314.19;5033941;28;22404;-51
2022/05/03 10:01:23;;;;;;;2.67;1.75;;;;;;;18.87;34.80;101324.41;5039946;28;20445;-52
2022/05/03 10:03:50;;;;;;;1.70;1.50;;;;;;;18.69;36.20;101317.75;5033261;28;20228;-52
2022/05/03 10:06:19;;;;;;;2.30;1.88;;;;;;;18.96;34.62;101318.88;5025375;28;20657;-52
2022/05/03 10:08:48;;;;;;;3.90;1.60;;;;;;;19.05;34.74;101321.28;5033190;28;20423;-52
2022/05/03 10:11:16;;;;;;;1.02;0.93;;;;;;;19.15;34.02;101324.56;5040031;28;20240;-52
2022/05/03 10:13:42;;;;;;;2.53;1.52;;;;;;;19.26;33.45;101326.94;5046947;28;20235;-51
2022/05/03 10:21:41;;;;;;;4.85;1.50;;;;;;;19.30;32.91;101312.63;5040971;28;20242;-52
2022/05/03 10:24:09;;;;;;;2.75;1.48;;;;;;;19.42;32.50;101301.63;5044585;28;20601;-55
2022/05/03 10:27:05;;;;;;;2.45;1.70;;;;;;;19.47;32.48;101307.69;5052155;28;20545;-52
2022/05/03 10:29:33;;;;;;;1.92;1.55;;;;;;;19.28;33.68;101315.34;5044884;28;20235;-52
2022/05/03 10:32:02;;;;;;;2.47;1.38;;;;;;;19.46;32.98;101307.75;5037337;28;20239;-51
2022/05/03 10:34:59;;;;;;;2.85;1.42;;;;;;;19.78;31.58;101310.34;5048734;28;20319;-52
2022/05/03 10:38:04;;;;;;;2.38;1.25;;;;;;;19.92;31.50;101299.28;4997770;28;20296;-52
2022/05/03 10:40:32;;;;;;;5.68;1.67;;;;;;;19.70;30.80;101308.84;5025846;28;20236;-51
2022/05/03 10:43:06;;;;;;;2.30;1.10;;;;;;;19.89;31.12;101304.69;5048277;28;20326;-51
2022/05/03 10:45:47;;;;;;;2.28;1.10;;;;;;;19.94;30.86;101297.47;5046125;28;20232;-54
2022/05/03 10:48:23;;;;;;;1.58;1.33;;;;;;;19.90;31.18;101301.16;5018861;28;20259;-51
2022/05/03 10:50:52;;;;;;;1.27;1.20;;;;;;;19.93;31.10;101297.50;5040275;28;20235;-52
2022/05/03 10:53:30;;;;;;;2.25;1.00;;;;;;;19.92;31.32;101301.94;5051587;28;20253;-54
2022/05/03 10:56:27;;;;;;;2.22;2.00;;;;;;;19.78;31.67;101298.84;5038804;28;20434;-51
2022/05/03 10:59:10;;;;;;;1.52;1.42;;;;;;;19.36;31.79;101290.28;5029149;28;20755;-51
2022/05/03 11:02:07;;;;;;;1.00;1.00;;;;;;;19.66;31.56;101296.56;5043400;28;20239;-51
2022/05/03 11:04:36;;;;;;;2.80;1.38;;;;;;;19.96;31.10;101286.72;5041817;28;20127;-52
2022/05/03 11:07:02;;;;;;;1.65;1.55;;;;;;;20.22;30.07;101288.59;5035650;28;20431;-52
2022/05/03 11:09:31;;;;;;;1.52;1.42;;;;;;;19.96;30.58;101282.28;5022802;28;20705;-52
2022/05/03 11:12:07;;;;;;;1.98;1.30;;;;;;;20.32;30.16;101284.69;5033330;28;25964;-52
2022/05/03 11:15:04;;;;;;;1.40;1.30;;;;;;;20.37;30.11;101285.41;5039171;28;20681;-51
2022/05/03 11:17:30;;;;;;;2.83;1.17;;;;;;;20.07;31.27;101281.06;5030273;28;20235;-52
2022/05/03 11:20:00;;;;;;;1.52;1.40;;;;;;;20.34;30.34;101272.19;5039396;28;20302;-52
2022/05/03 11:22:28;;;;;;;2.88;1.42;;;;;;;20.78;30.72;101267.19;5037195;28;20717;-52
2022/05/03 11:24:57;;;;;;;1.65;1.25;;;;;;;20.91;29.21;101279.16;5046792;28;20244;-52
2022/05/03 11:27:25;;;;;;;3.88;1.30;;;;;;;21.01;29.58;101274.34;5048992;28;20232;-51
2022/05/03 11:30:01;;;;;;;3.45;1.48;;;;;;;20.91;29.17;101273.81;5047633;28;20238;-51
2022/05/03 11:32:30;;;;;;;1.40;1.00;;;;;;;20.91;29.38;101279.16;5040686;28;20311;-52
2022/05/03 11:35:01;;;;;;;1.55;1.35;;;;;;;21.03;29.24;101268.97;5039347;28;20286;-51
2022/05/03 11:37:27;;;;;;;2.00;1.20;;;;;;;21.16;29.46;101262.25;5044738;28;20243;-52
2022/05/03 11:40:03;;;;;;;0.85;0.85;;;;;;;21.38;29.24;101263.25;5046700;28;20721;-52
2022/05/03 11:42:36;;;;;;;2.30;1.10;;;;;;;21.57;29.18;101270.56;5046451;28;20230;-51
2022/05/03 11:45:03;;;;;;;0.70;0.70;;;;;;;21.81;28.20;101255.38;5035936;28;20241;-53
2022/05/03 11:47:30;;;;;;;2.63;0.90;;;;;;;22.07;29.37;101257.88;5043067;28;20501;-51
2022/05/03 11:49:57;;;;;;;16.58;4.70;;;;;;;22.71;27.23;101270.41;5047061;28;20327;-51
2022/05/03 11:57:55;;;;;;;6.15;2.10;;;;;;;22.83;26.72;101264.53;5039063;28;20770;-53
2022/05/03 12:00:22;;;;;;;1.98;1.38;;;;;;;22.79;26.87;101262.06;5042190;28;20281;-51
2022/05/03 12:02:48;;;;;;;2.25;1.30;;;;;;;22.67;27.50;101255.41;5046716;28;20246;-52
2022/05/03 12:05:17;;;;;;;0.80;0.80;;;;;;;23.04;26.81;101254.69;5032721;28;20286;-50
2022/05/03 12:07:46;;;;;;;6.28;1.90;;;;;;;23.63;26.45;101244.84;5027163;28;20318;-51
2022/05/03 12:10:20;;;;;;;3.33;1.05;;;;;;;23.77;26.05;101244.25;5025431;28;20290;-52
2022/05/03 12:12:47;;;;;;;1.05;0.93;;;;;;;22.68;27.70;101243.78;5027700;28;20268;-52
2022/05/03 12:15:20;;;;;;;1.17;1.10;;;;;;;23.37;26.79;101245.19;5037378;28;20228;-52